Falfurrias, TX

8:39 PM CST on February 26, 2017 (GMT -0600)
Falfurrias

Weather History for KBKS - April, 2013

Change the Weather History Date:

Friday, April 19, 2013

  Actual Average (KNQI) Record (KNQI)
Temperature  
Mean Temperature 69 °F -  
Max Temperature 78 °F 81 °F 97 °F (2011)
Min Temperature 59 °F 63 °F 46 °F (2008)
Cooling Degree Days 4    
Growing Degree Days 19 (Base 50)    
Moisture  
Dew Point 34 °F    
Average Humidity 32    
Maximum Humidity 55    
Minimum Humidity 14    
Precipitation  
Precipitation 0.00 in - - ()
Sea Level Pressure  
Sea Level Pressure 30.20 in    
Wind  
Wind Speed 11 mph (NNE)    
Max Wind Speed 18 mph    
Max Gust Speed 30 mph    
Visibility 10 miles    
Events      
Averages and records for this station are not official NWS values.
T = Trace of Precipitation, MM = Missing Value Source: NWS Daily Summary

Daily Weather History Graph

Daily Weather History Graph

Search for Another Location

Airport or City:

Trip Planner

Search our weather history database for the weather conditions in past years. The results will help you decide how hot, cold, wet, or windy it might be!

Date:

Astronomy

Apr. 19, 2013 Rise Set
Actual Time 7:04 AM CDT 7:59 PM CDT
Civil Twilight 6:40 AM CDT 8:23 PM CDT
Nautical Twilight 6:11 AM CDT 8:51 PM CDT
Astronomical Twilight 5:42 AM CDT 9:20 PM CDT
Moon 2:17 PM CDT (4/19) 2:46 AM CDT (4/19)
Length of Visible Light 13h 43m
Length of Day
12h 55m
First Quarter, 62% of the Moon is Illuminated
Apr 19
First Quarter
Apr 25
Full
May 2
Last Quarter
May 9
New
May 17
First Quarter

Hourly Weather History & Observations

Time (CDT) Temp. Dew Point Humidity Pressure Visibility Wind Dir Wind Speed Gust Speed Precip Events Conditions
12:15 AM 65.7 °F 47.7 °F 52% 30.06 in 10.0 mi NNE 12.7 mph 19.6 mph N/A   Scattered Clouds
12:35 AM 65.3 °F 47.8 °F 53% 30.08 in 10.0 mi NNE 11.5 mph 16.1 mph N/A   Scattered Clouds
12:55 AM 64.8 °F 47.8 °F 54% 30.09 in 10.0 mi NNE 10.4 mph - N/A   Mostly Cloudy
1:15 AM 64.4 °F 47.8 °F 55% 30.10 in 10.0 mi NNE 6.9 mph - N/A   Scattered Clouds
1:35 AM 64.4 °F 47.5 °F 54% 30.11 in 10.0 mi NNE 11.5 mph - N/A   Scattered Clouds
1:55 AM 65.3 °F 45.0 °F 48% 30.11 in 10.0 mi NNE 12.7 mph 19.6 mph N/A   Scattered Clouds
2:15 AM 65.1 °F 44.4 °F 47% 30.11 in 10.0 mi North 13.8 mph 19.6 mph N/A   Scattered Clouds
2:35 AM 64.9 °F 44.2 °F 47% 30.11 in 10.0 mi NNE 11.5 mph 27.6 mph N/A   Mostly Cloudy
2:55 AM 64.9 °F 44.1 °F 47% 30.11 in 10.0 mi NNE 15.0 mph 18.4 mph N/A   Mostly Cloudy
3:15 AM 64.9 °F 43.0 °F 45% 30.12 in 10.0 mi North 12.7 mph 20.7 mph N/A   Overcast
3:35 AM 64.8 °F 42.8 °F 45% 30.12 in 10.0 mi North 15.0 mph 23.0 mph N/A   Overcast
3:55 AM 64.4 °F 39.9 °F 41% 30.12 in 10.0 mi NNE 17.3 mph 25.3 mph N/A   Overcast
4:15 AM 63.9 °F 39.4 °F 41% 30.13 in 10.0 mi NNE 16.1 mph 29.9 mph N/A   Mostly Cloudy
4:35 AM 63.5 °F 39.6 °F 41% 30.13 in 10.0 mi NNE 12.7 mph 23.0 mph N/A   Overcast
4:55 AM 63.0 °F 39.7 °F 42% 30.14 in 10.0 mi North 13.8 mph 19.6 mph N/A   Overcast
5:15 AM 62.6 °F 38.8 °F 42% 30.16 in 10.0 mi NNE 15.0 mph 27.6 mph N/A   Overcast
5:35 AM 62.2 °F 39.0 °F 42% 30.17 in 10.0 mi North 18.4 mph 25.3 mph N/A   Overcast
5:55 AM 61.9 °F 37.9 °F 41% 30.18 in 10.0 mi NNE 17.3 mph 28.8 mph N/A   Overcast
6:15 AM 61.3 °F 37.9 °F 42% 30.18 in 10.0 mi NNE 16.1 mph 21.9 mph N/A   Mostly Cloudy
6:35 AM 61.2 °F 36.5 °F 40% 30.19 in 10.0 mi NNE 11.5 mph 23.0 mph N/A   Overcast
6:55 AM 61.0 °F 36.5 °F 40% 30.20 in 10.0 mi North 11.5 mph 23.0 mph N/A   Overcast
7:15 AM 61.0 °F 36.7 °F 40% 30.22 in 10.0 mi North 15.0 mph 23.0 mph N/A   Overcast
7:35 AM 60.8 °F 37.8 °F 42% 30.23 in 10.0 mi North 8.1 mph - N/A   Overcast
7:55 AM 60.8 °F 36.9 °F 41% 30.24 in 10.0 mi North 15.0 mph 21.9 mph N/A   Overcast
8:15 AM 60.6 °F 36.0 °F 40% 30.26 in 10.0 mi North 10.4 mph 21.9 mph N/A   Overcast
8:35 AM 60.4 °F 36.1 °F 40% 30.27 in 10.0 mi NNE 9.2 mph 17.3 mph N/A   Overcast
8:55 AM 60.8 °F 35.4 °F 39% 30.27 in 10.0 mi North 13.8 mph 20.7 mph N/A   Overcast
9:35 AM 61.2 °F 33.8 °F 36% 30.29 in 10.0 mi North 11.5 mph 17.3 mph N/A   Overcast
9:55 AM 61.3 °F 33.1 °F 35% 30.30 in 10.0 mi North 10.4 mph 16.1 mph N/A   Overcast
10:15 AM 61.7 °F 32.0 °F 33% 30.31 in 10.0 mi North 11.5 mph - N/A   Overcast
10:35 AM 62.1 °F 31.6 °F 32% 30.32 in 10.0 mi North 12.7 mph - N/A   Overcast
10:55 AM 62.8 °F 30.2 °F 29% 30.32 in 10.0 mi North 13.8 mph - N/A   Overcast
11:15 AM 63.9 °F 29.7 °F 28% 30.32 in 10.0 mi NNE 11.5 mph - N/A   Overcast
11:35 AM 64.9 °F 29.1 °F 26% 30.33 in 10.0 mi NNE 12.7 mph 18.4 mph N/A   Mostly Cloudy
11:55 AM 65.1 °F 29.1 °F 26% 30.34 in 10.0 mi North 10.4 mph 17.3 mph N/A   Overcast
12:15 PM 66.2 °F 28.9 °F 25% 30.33 in 10.0 mi NNE 6.9 mph - N/A   Mostly Cloudy
12:35 PM 66.7 °F 28.4 °F 24% 30.32 in 10.0 mi North 12.7 mph 17.3 mph N/A   Mostly Cloudy
1:15 PM 68.5 °F 24.4 °F 19% 30.30 in 10.0 mi NNE 12.7 mph 17.3 mph N/A   Scattered Clouds
1:35 PM 70.2 °F 24.6 °F 18% 30.29 in 10.0 mi NNE 10.4 mph - N/A   Clear
1:55 PM 71.1 °F 24.4 °F 17% 30.28 in 10.0 mi ENE 9.2 mph - N/A   Clear
2:15 PM 72.3 °F 24.4 °F 17% 30.27 in 10.0 mi NNE 10.4 mph 16.1 mph N/A   Clear
2:35 PM 72.0 °F 24.1 °F 17% 30.26 in 10.0 mi ENE 6.9 mph - N/A   Clear
2:55 PM 72.5 °F 23.9 °F 16% 30.25 in 10.0 mi NE 3.5 mph - N/A   Clear
3:15 PM 73.9 °F 24.6 °F 16% 30.24 in 10.0 mi Calm Calm - N/A   Clear
3:35 PM 74.8 °F 25.0 °F 16% 30.22 in 7.0 mi NNE 6.9 mph - N/A   Clear
3:55 PM 76.1 °F 25.5 °F 15% 30.21 in 10.0 mi North 9.2 mph 16.1 mph N/A   Clear
4:15 PM 76.5 °F 25.5 °F 15% 30.19 in 10.0 mi NNW 10.4 mph 18.4 mph N/A   Clear
4:35 PM 77.5 °F 25.7 °F 15% 30.18 in 10.0 mi NNE 8.1 mph - N/A   Clear
4:55 PM 76.8 °F 25.5 °F 15% 30.17 in 10.0 mi NNE 3.5 mph - N/A   Clear
5:15 PM 77.9 °F 25.7 °F 15% 30.16 in 10.0 mi North 5.8 mph - N/A   Clear
5:35 PM 77.7 °F 25.2 °F 14% 30.16 in 10.0 mi NNW 4.6 mph - N/A   Clear
5:55 PM 78.3 °F 25.5 °F 14% 30.16 in 10.0 mi North 6.9 mph - N/A   Clear
6:15 PM 77.7 °F 25.2 °F 14% 30.15 in 10.0 mi NNW 8.1 mph 17.3 mph N/A   Clear
6:35 PM 77.4 °F 24.8 °F 14% 30.15 in 10.0 mi NNW 6.9 mph - N/A   Clear
6:55 PM 77.4 °F 25.0 °F 14% 30.15 in 10.0 mi North 6.9 mph - N/A   Clear
7:15 PM 77.0 °F 24.8 °F 14% 30.15 in 10.0 mi North 5.8 mph - N/A   Clear
7:35 PM 76.1 °F 25.2 °F 15% 30.15 in 10.0 mi North 5.8 mph - N/A   Clear
7:55 PM 74.5 °F 25.3 °F 16% 30.15 in 10.0 mi NNE 3.5 mph - N/A   Clear
8:15 PM 71.4 °F 28.8 °F 21% 30.16 in 10.0 mi East 4.6 mph - N/A   Clear
8:35 PM 69.3 °F 32.0 °F 25% 30.17 in 10.0 mi ESE 5.8 mph - N/A   Scattered Clouds
8:55 PM 67.8 °F 32.0 °F 26% 30.18 in 10.0 mi ESE 5.8 mph - N/A   Scattered Clouds
9:15 PM 66.0 °F 32.4 °F 29% 30.18 in 10.0 mi ESE 5.8 mph - N/A   Scattered Clouds
9:35 PM 65.3 °F 33.1 °F 30% 30.19 in 10.0 mi SE 5.8 mph - N/A   Scattered Clouds
9:55 PM 64.6 °F 34.5 °F 33% 30.20 in 10.0 mi SE 6.9 mph - N/A   Scattered Clouds
10:15 PM 63.7 °F 35.8 °F 35% 30.20 in 10.0 mi SE 6.9 mph - N/A   Scattered Clouds
10:35 PM 62.4 °F 36.9 °F 39% 30.21 in 10.0 mi SE 5.8 mph - N/A   Scattered Clouds
10:55 PM 61.9 °F 37.8 °F 41% 30.22 in 10.0 mi SE 5.8 mph - N/A   Clear
11:15 PM 61.5 °F 38.3 °F 42% 30.22 in 10.0 mi ESE 4.6 mph - N/A   Clear
11:35 PM 60.4 °F 38.7 °F 45% 30.22 in 10.0 mi SE 4.6 mph - N/A   Clear
11:55 PM 59.4 °F 39.2 °F 47% 30.22 in 10.0 mi SSE 4.6 mph - N/A   Scattered Clouds